sensor_id;sensor_type;location;lat;lon;timestamp;temperature;humidity
8862;DHT22;4799;50.996;4.754;2024-01-15T00:00:19;2.20;99.90
8862;DHT22;4799;50.996;4.754;2024-01-15T00:27:31;2.50;99.90
8862;DHT22;4799;50.996;4.754;2024-01-15T00:29:57;2.50;99.90
8862;DHT22;4799;50.996;4.754;2024-01-15T00:32:23;2.50;99.90
8862;DHT22;4799;50.996;4.754;2024-01-15T00:34:48;2.60;99.90
8862;DHT22;4799;50.996;4.754;2024-01-15T00:37:14;2.50;99.90
8862;DHT22;4799;50.996;4.754;2024-01-15T00:39:40;2.50;99.90
8862;DHT22;4799;50.996;4.754;2024-01-15T00:42:05;2.50;99.90
8862;DHT22;4799;50.996;4.754;2024-01-15T00:44:31;2.50;99.90
8862;DHT22;4799;50.996;4.754;2024-01-15T00:46:57;2.50;99.90
8862;DHT22;4799;50.996;4.754;2024-01-15T00:49:22;2.50;99.90
8862;DHT22;4799;50.996;4.754;2024-01-15T00:51:48;2.50;99.90
8862;DHT22;4799;50.996;4.754;2024-01-15T00:54:14;2.50;99.90
8862;DHT22;4799;50.996;4.754;2024-01-15T00:56:39;2.40;99.90
8862;DHT22;4799;50.996;4.754;2024-01-15T00:59:05;2.40;99.90
8862;DHT22;4799;50.996;4.754;2024-01-15T01:01:32;2.40;99.90
8862;DHT22;4799;50.996;4.754;2024-01-15T01:03:57;2.30;99.90
8862;DHT22;4799;50.996;4.754;2024-01-15T01:06:23;2.30;99.90
8862;DHT22;4799;50.996;4.754;2024-01-15T01:08:49;2.30;99.90
8862;DHT22;4799;50.996;4.754;2024-01-15T01:11:15;2.30;99.90
8862;DHT22;4799;50.996;4.754;2024-01-15T01:13:41;2.20;99.90
8862;DHT22;4799;50.996;4.754;2024-01-15T01:16:07;2.20;99.90
8862;DHT22;4799;50.996;4.754;2024-01-15T01:18:32;2.20;99.90
8862;DHT22;4799;50.996;4.754;2024-01-15T01:20:58;2.10;99.90
8862;DHT22;4799;50.996;4.754;2024-01-15T01:23:24;2.10;99.90
8862;DHT22;4799;50.996;4.754;2024-01-15T01:25:49;2.10;99.90
8862;DHT22;4799;50.996;4.754;2024-01-15T01:28:15;2.00;99.90
8862;DHT22;4799;50.996;4.754;2024-01-15T01:30:41;2.00;99.90
8862;DHT22;4799;50.996;4.754;2024-01-15T01:33:06;2.00;99.90
8862;DHT22;4799;50.996;4.754;2024-01-15T01:35:32;1.90;99.90
8862;DHT22;4799;50.996;4.754;2024-01-15T01:37:58;1.90;99.90
8862;DHT22;4799;50.996;4.754;2024-01-15T01:40:23;1.90;99.90
8862;DHT22;4799;50.996;4.754;2024-01-15T01:42:49;1.90;99.90
8862;DHT22;4799;50.996;4.754;2024-01-15T01:45:15;1.80;99.90
8862;DHT22;4799;50.996;4.754;2024-01-15T01:47:41;1.80;99.90
8862;DHT22;4799;50.996;4.754;2024-01-15T01:50:07;1.80;99.90
8862;DHT22;4799;50.996;4.754;2024-01-15T01:52:34;1.80;99.90
8862;DHT22;4799;50.996;4.754;2024-01-15T01:55:02;1.80;99.90
8862;DHT22;4799;50.996;4.754;2024-01-15T01:57:29;1.80;99.90
8862;DHT22;4799;50.996;4.754;2024-01-15T01:59:56;1.80;99.90
8862;DHT22;4799;50.996;4.754;2024-01-15T02:02:23;1.80;99.90
8862;DHT22;4799;50.996;4.754;2024-01-15T02:04:50;1.80;99.90
8862;DHT22;4799;50.996;4.754;2024-01-15T02:07:16;1.80;99.90
8862;DHT22;4799;50.996;4.754;2024-01-15T02:09:44;1.80;99.90
8862;DHT22;4799;50.996;4.754;2024-01-15T02:12:10;1.80;99.90
8862;DHT22;4799;50.996;4.754;2024-01-15T02:14:36;1.80;99.90
8862;DHT22;4799;50.996;4.754;2024-01-15T02:17:02;1.80;99.90
8862;DHT22;4799;50.996;4.754;2024-01-15T02:19:28;1.80;99.90
8862;DHT22;4799;50.996;4.754;2024-01-15T02:21:53;1.70;99.90
8862;DHT22;4799;50.996;4.754;2024-01-15T02:24:19;1.70;99.90
8862;DHT22;4799;50.996;4.754;2024-01-15T02:26:45;1.70;99.90
8862;DHT22;4799;50.996;4.754;2024-01-15T02:29:11;1.60;99.90
8862;DHT22;4799;50.996;4.754;2024-01-15T02:31:38;1.60;99.90
8862;DHT22;4799;50.996;4.754;2024-01-15T02:34:04;1.60;99.90
8862;DHT22;4799;50.996;4.754;2024-01-15T02:36:30;1.50;99.90
8862;DHT22;4799;50.996;4.754;2024-01-15T02:38:56;1.60;99.90
8862;DHT22;4799;50.996;4.754;2024-01-15T02:41:21;1.50;99.90
8862;DHT22;4799;50.996;4.754;2024-01-15T02:43:47;1.60;99.90
8862;DHT22;4799;50.996;4.754;2024-01-15T02:46:13;1.60;99.90
8862;DHT22;4799;50.996;4.754;2024-01-15T02:48:38;1.60;99.90
8862;DHT22;4799;50.996;4.754;2024-01-15T02:51:04;1.60;99.90
8862;DHT22;4799;50.996;4.754;2024-01-15T02:53:30;1.60;99.90
8862;DHT22;4799;50.996;4.754;2024-01-15T02:55:56;1.60;99.90
8862;DHT22;4799;50.996;4.754;2024-01-15T02:58:22;1.60;99.90
8862;DHT22;4799;50.996;4.754;2024-01-15T03:00:47;1.60;99.90
8862;DHT22;4799;50.996;4.754;2024-01-15T03:03:13;1.70;99.90
8862;DHT22;4799;50.996;4.754;2024-01-15T03:05:39;1.70;99.90
8862;DHT22;4799;50.996;4.754;2024-01-15T03:08:05;1.80;99.90
8862;DHT22;4799;50.996;4.754;2024-01-15T03:10:30;1.80;99.90
8862;DHT22;4799;50.996;4.754;2024-01-15T03:12:57;1.80;99.90
8862;DHT22;4799;50.996;4.754;2024-01-15T03:15:22;1.80;99.90
8862;DHT22;4799;50.996;4.754;2024-01-15T03:17:48;1.80;99.90
8862;DHT22;4799;50.996;4.754;2024-01-15T03:20:14;1.80;99.90
8862;DHT22;4799;50.996;4.754;2024-01-15T03:22:40;1.80;99.90
8862;DHT22;4799;50.996;4.754;2024-01-15T03:25:06;1.80;99.90
8862;DHT22;4799;50.996;4.754;2024-01-15T03:27:32;1.80;99.90
8862;DHT22;4799;50.996;4.754;2024-01-15T03:29:58;1.80;99.90
8862;DHT22;4799;50.996;4.754;2024-01-15T03:32:23;1.80;99.90
8862;DHT22;4799;50.996;4.754;2024-01-15T03:34:49;1.90;99.90
8862;DHT22;4799;50.996;4.754;2024-01-15T03:37:15;1.90;99.90
8862;DHT22;4799;50.996;4.754;2024-01-15T03:39:41;1.90;99.90
8862;DHT22;4799;50.996;4.754;2024-01-15T03:42:07;2.00;99.90
8862;DHT22;4799;50.996;4.754;2024-01-15T03:44:32;2.00;99.90
8862;DHT22;4799;50.996;4.754;2024-01-15T03:46:58;2.10;99.90
8862;DHT22;4799;50.996;4.754;2024-01-15T03:49:24;2.20;99.90
8862;DHT22;4799;50.996;4.754;2024-01-15T03:51:50;2.10;99.90
8862;DHT22;4799;50.996;4.754;2024-01-15T03:54:15;2.10;99.90
8862;DHT22;4799;50.996;4.754;2024-01-15T03:56:41;2.10;99.90
8862;DHT22;4799;50.996;4.754;2024-01-15T03:59:07;2.10;99.90
8862;DHT22;4799;50.996;4.754;2024-01-15T04:01:32;2.10;99.90
8862;DHT22;4799;50.996;4.754;2024-01-15T04:03:58;2.10;99.90
8862;DHT22;4799;50.996;4.754;2024-01-15T04:06:24;2.10;99.90
8862;DHT22;4799;50.996;4.754;2024-01-15T04:08:49;2.00;99.90
8862;DHT22;4799;50.996;4.754;2024-01-15T04:11:15;2.00;99.90
8862;DHT22;4799;50.996;4.754;2024-01-15T04:13:41;2.00;99.90
8862;DHT22;4799;50.996;4.754;2024-01-15T04:16:07;2.00;99.90
8862;DHT22;4799;50.996;4.754;2024-01-15T04:18:32;2.00;99.90
8862;DHT22;4799;50.996;4.754;2024-01-15T04:20:58;2.00;99.90
8862;DHT22;4799;50.996;4.754;2024-01-15T04:23:24;2.00;99.90
8862;DHT22;4799;50.996;4.754;2024-01-15T04:25:49;2.00;99.90
8862;DHT22;4799;50.996;4.754;2024-01-15T04:28:15;1.90;99.90
8862;DHT22;4799;50.996;4.754;2024-01-15T04:30:41;2.00;99.90
8862;DHT22;4799;50.996;4.754;2024-01-15T04:33:06;2.00;99.90
8862;DHT22;4799;50.996;4.754;2024-01-15T04:35:33;1.90;99.90
8862;DHT22;4799;50.996;4.754;2024-01-15T04:37:59;2.00;99.90
8862;DHT22;4799;50.996;4.754;2024-01-15T04:40:24;1.90;99.90
8862;DHT22;4799;50.996;4.754;2024-01-15T04:42:53;1.90;99.90
8862;DHT22;4799;50.996;4.754;2024-01-15T04:45:19;1.90;99.90
8862;DHT22;4799;50.996;4.754;2024-01-15T04:47:48;1.80;99.90
8862;DHT22;4799;50.996;4.754;2024-01-15T04:50:14;1.80;99.90
8862;DHT22;4799;50.996;4.754;2024-01-15T04:52:40;1.70;99.90
8862;DHT22;4799;50.996;4.754;2024-01-15T04:55:06;1.60;99.90
8862;DHT22;4799;50.996;4.754;2024-01-15T04:57:31;1.60;99.90
8862;DHT22;4799;50.996;4.754;2024-01-15T04:59:57;1.50;99.90
8862;DHT22;4799;50.996;4.754;2024-01-15T05:02:23;1.50;99.90
8862;DHT22;4799;50.996;4.754;2024-01-15T05:04:48;1.40;99.90
8862;DHT22;4799;50.996;4.754;2024-01-15T05:07:14;1.30;99.90
8862;DHT22;4799;50.996;4.754;2024-01-15T05:09:40;1.30;99.90
8862;DHT22;4799;50.996;4.754;2024-01-15T05:12:05;1.30;99.90
8862;DHT22;4799;50.996;4.754;2024-01-15T05:14:31;1.20;99.90
8862;DHT22;4799;50.996;4.754;2024-01-15T05:16:57;1.20;99.90
8862;DHT22;4799;50.996;4.754;2024-01-15T05:19:23;1.20;99.90
8862;DHT22;4799;50.996;4.754;2024-01-15T05:21:48;1.10;99.90
8862;DHT22;4799;50.996;4.754;2024-01-15T05:24:14;1.00;99.90
8862;DHT22;4799;50.996;4.754;2024-01-15T05:26:40;1.10;99.90
8862;DHT22;4799;50.996;4.754;2024-01-15T05:29:05;1.00;99.90
8862;DHT22;4799;50.996;4.754;2024-01-15T05:31:31;1.00;99.90
8862;DHT22;4799;50.996;4.754;2024-01-15T05:33:57;1.00;99.90
8862;DHT22;4799;50.996;4.754;2024-01-15T05:36:22;1.00;99.90
8862;DHT22;4799;50.996;4.754;2024-01-15T05:38:48;1.00;99.90
8862;DHT22;4799;50.996;4.754;2024-01-15T05:41:15;1.10;99.90
8862;DHT22;4799;50.996;4.754;2024-01-15T05:43:40;1.10;99.90
8862;DHT22;4799;50.996;4.754;2024-01-15T05:46:06;1.10;99.90
8862;DHT22;4799;50.996;4.754;2024-01-15T05:48:32;1.10;99.90
8862;DHT22;4799;50.996;4.754;2024-01-15T05:50:57;1.10;99.90
8862;DHT22;4799;50.996;4.754;2024-01-15T05:53:23;1.10;99.90
8862;DHT22;4799;50.996;4.754;2024-01-15T05:55:49;1.10;99.90
8862;DHT22;4799;50.996;4.754;2024-01-15T05:58:14;1.10;99.90
8862;DHT22;4799;50.996;4.754;2024-01-15T06:00:40;1.10;99.90
8862;DHT22;4799;50.996;4.754;2024-01-15T06:03:06;1.10;99.90
8862;DHT22;4799;50.996;4.754;2024-01-15T06:05:31;1.10;99.90
8862;DHT22;4799;50.996;4.754;2024-01-15T06:07:57;1.10;99.90
8862;DHT22;4799;50.996;4.754;2024-01-15T06:10:23;1.20;99.90
8862;DHT22;4799;50.996;4.754;2024-01-15T06:12:49;1.20;99.90
8862;DHT22;4799;50.996;4.754;2024-01-15T06:15:15;1.20;99.90
8862;DHT22;4799;50.996;4.754;2024-01-15T06:17:40;1.20;99.90
8862;DHT22;4799;50.996;4.754;2024-01-15T06:20:07;1.20;99.90
8862;DHT22;4799;50.996;4.754;2024-01-15T06:22:34;1.20;99.90
8862;DHT22;4799;50.996;4.754;2024-01-15T06:25:03;1.20;99.90
8862;DHT22;4799;50.996;4.754;2024-01-15T06:27:28;1.30;99.90
8862;DHT22;4799;50.996;4.754;2024-01-15T06:29:54;1.30;99.90
8862;DHT22;4799;50.996;4.754;2024-01-15T06:32:21;1.30;99.90
8862;DHT22;4799;50.996;4.754;2024-01-15T06:34:47;1.30;99.90
8862;DHT22;4799;50.996;4.754;2024-01-15T06:37:12;1.30;99.90
8862;DHT22;4799;50.996;4.754;2024-01-15T06:39:38;1.40;99.90
8862;DHT22;4799;50.996;4.754;2024-01-15T06:42:04;1.40;99.90
8862;DHT22;4799;50.996;4.754;2024-01-15T06:44:30;1.40;99.90
8862;DHT22;4799;50.996;4.754;2024-01-15T06:46:56;1.30;99.90
8862;DHT22;4799;50.996;4.754;2024-01-15T06:49:23;1.30;99.90
8862;DHT22;4799;50.996;4.754;2024-01-15T06:51:49;1.40;99.90
8862;DHT22;4799;50.996;4.754;2024-01-15T06:54:14;1.40;99.90
8862;DHT22;4799;50.996;4.754;2024-01-15T06:56:40;1.40;99.90
8862;DHT22;4799;50.996;4.754;2024-01-15T06:59:06;1.40;99.90
8862;DHT22;4799;50.996;4.754;2024-01-15T07:01:31;1.30;99.90
8862;DHT22;4799;50.996;4.754;2024-01-15T07:03:57;1.30;99.90
8862;DHT22;4799;50.996;4.754;2024-01-15T07:06:23;1.30;99.90
8862;DHT22;4799;50.996;4.754;2024-01-15T07:08:49;1.30;99.90
8862;DHT22;4799;50.996;4.754;2024-01-15T07:11:15;1.30;99.90
8862;DHT22;4799;50.996;4.754;2024-01-15T07:13:41;1.30;99.90
8862;DHT22;4799;50.996;4.754;2024-01-15T07:16:06;1.40;99.90
8862;DHT22;4799;50.996;4.754;2024-01-15T07:18:32;1.40;99.90
8862;DHT22;4799;50.996;4.754;2024-01-15T07:20:58;1.40;99.90
8862;DHT22;4799;50.996;4.754;2024-01-15T07:23:24;1.50;99.90
8862;DHT22;4799;50.996;4.754;2024-01-15T07:25:50;1.40;99.90
8862;DHT22;4799;50.996;4.754;2024-01-15T07:28:16;1.40;99.90
8862;DHT22;4799;50.996;4.754;2024-01-15T07:30:41;1.40;99.90
8862;DHT22;4799;50.996;4.754;2024-01-15T07:33:07;1.40;99.90
8862;DHT22;4799;50.996;4.754;2024-01-15T07:35:33;1.40;99.90
8862;DHT22;4799;50.996;4.754;2024-01-15T07:37:58;1.40;99.90
8862;DHT22;4799;50.996;4.754;2024-01-15T07:40:24;1.40;99.90
8862;DHT22;4799;50.996;4.754;2024-01-15T07:42:51;1.40;99.90
8862;DHT22;4799;50.996;4.754;2024-01-15T07:45:16;1.50;99.90
8862;DHT22;4799;50.996;4.754;2024-01-15T07:47:42;1.50;99.90
8862;DHT22;4799;50.996;4.754;2024-01-15T07:50:08;1.50;99.90
8862;DHT22;4799;50.996;4.754;2024-01-15T07:52:34;1.60;99.90
8862;DHT22;4799;50.996;4.754;2024-01-15T07:54:59;1.60;99.90
8862;DHT22;4799;50.996;4.754;2024-01-15T07:57:26;1.60;99.90
8862;DHT22;4799;50.996;4.754;2024-01-15T07:59:51;1.60;99.90
8862;DHT22;4799;50.996;4.754;2024-01-15T08:02:17;1.60;99.90
8862;DHT22;4799;50.996;4.754;2024-01-15T08:04:43;1.70;99.90
8862;DHT22;4799;50.996;4.754;2024-01-15T08:07:09;1.70;99.90
8862;DHT22;4799;50.996;4.754;2024-01-15T08:09:35;1.80;99.90
8862;DHT22;4799;50.996;4.754;2024-01-15T08:12:01;1.80;99.90
8862;DHT22;4799;50.996;4.754;2024-01-15T08:14:27;1.80;99.90
8862;DHT22;4799;50.996;4.754;2024-01-15T08:16:52;1.90;99.90
8862;DHT22;4799;50.996;4.754;2024-01-15T08:19:18;1.90;99.90
8862;DHT22;4799;50.996;4.754;2024-01-15T08:21:45;1.90;99.90
8862;DHT22;4799;50.996;4.754;2024-01-15T08:24:11;2.00;99.90
8862;DHT22;4799;50.996;4.754;2024-01-15T08:26:37;2.00;99.90
8862;DHT22;4799;50.996;4.754;2024-01-15T08:29:02;2.00;99.90
8862;DHT22;4799;50.996;4.754;2024-01-15T08:31:28;2.00;99.90
8862;DHT22;4799;50.996;4.754;2024-01-15T08:33:54;2.00;99.90
8862;DHT22;4799;50.996;4.754;2024-01-15T08:36:21;2.00;99.90
8862;DHT22;4799;50.996;4.754;2024-01-15T08:38:47;2.00;99.90
8862;DHT22;4799;50.996;4.754;2024-01-15T08:41:13;2.10;99.90
8862;DHT22;4799;50.996;4.754;2024-01-15T08:43:39;2.10;99.90
8862;DHT22;4799;50.996;4.754;2024-01-15T08:46:05;2.10;99.90
8862;DHT22;4799;50.996;4.754;2024-01-15T08:48:31;2.20;99.90
8862;DHT22;4799;50.996;4.754;2024-01-15T08:50:57;2.20;99.90
8862;DHT22;4799;50.996;4.754;2024-01-15T08:53:22;2.30;99.90
8862;DHT22;4799;50.996;4.754;2024-01-15T08:55:48;2.30;99.90
8862;DHT22;4799;50.996;4.754;2024-01-15T08:58:15;2.30;99.90
8862;DHT22;4799;50.996;4.754;2024-01-15T09:00:41;2.30;99.90
8862;DHT22;4799;50.996;4.754;2024-01-15T09:03:07;2.30;99.90
8862;DHT22;4799;50.996;4.754;2024-01-15T09:05:34;2.40;99.90
8862;DHT22;4799;50.996;4.754;2024-01-15T09:08:00;2.40;99.90
8862;DHT22;4799;50.996;4.754;2024-01-15T09:10:25;2.50;99.90
8862;DHT22;4799;50.996;4.754;2024-01-15T09:12:51;2.50;99.90
8862;DHT22;4799;50.996;4.754;2024-01-15T09:15:17;2.50;99.90
8862;DHT22;4799;50.996;4.754;2024-01-15T09:17:42;2.50;99.90
8862;DHT22;4799;50.996;4.754;2024-01-15T09:20:09;2.60;99.90
8862;DHT22;4799;50.996;4.754;2024-01-15T09:22:37;2.70;99.90
8862;DHT22;4799;50.996;4.754;2024-01-15T09:25:04;2.70;99.90
8862;DHT22;4799;50.996;4.754;2024-01-15T09:27:30;2.70;99.90
8862;DHT22;4799;50.996;4.754;2024-01-15T09:29:56;2.80;99.90
8862;DHT22;4799;50.996;4.754;2024-01-15T09:32:22;2.80;99.90
8862;DHT22;4799;50.996;4.754;2024-01-15T09:34:48;2.90;99.90
8862;DHT22;4799;50.996;4.754;2024-01-15T09:37:14;2.90;99.90
8862;DHT22;4799;50.996;4.754;2024-01-15T09:39:40;3.00;99.90
8862;DHT22;4799;50.996;4.754;2024-01-15T09:42:06;3.00;99.90
8862;DHT22;4799;50.996;4.754;2024-01-15T09:44:32;3.00;99.90
8862;DHT22;4799;50.996;4.754;2024-01-15T09:46:59;3.00;99.90
8862;DHT22;4799;50.996;4.754;2024-01-15T09:49:25;2.90;99.90
8862;DHT22;4799;50.996;4.754;2024-01-15T09:51:51;2.80;99.90
8862;DHT22;4799;50.996;4.754;2024-01-15T09:54:17;2.70;99.90
8862;DHT22;4799;50.996;4.754;2024-01-15T09:56:47;2.60;99.90
8862;DHT22;4799;50.996;4.754;2024-01-15T09:59:17;2.60;99.90
8862;DHT22;4799;50.996;4.754;2024-01-15T10:01:46;2.50;99.90
8862;DHT22;4799;50.996;4.754;2024-01-15T10:04:14;2.50;99.90
8862;DHT22;4799;50.996;4.754;2024-01-15T10:06:44;2.50;99.90
8862;DHT22;4799;50.996;4.754;2024-01-15T10:09:14;2.60;99.90
8862;DHT22;4799;50.996;4.754;2024-01-15T10:11:43;2.60;99.90
8862;DHT22;4799;50.996;4.754;2024-01-15T10:14:10;2.60;99.90
8862;DHT22;4799;50.996;4.754;2024-01-15T10:16:42;2.60;99.90
8862;DHT22;4799;50.996;4.754;2024-01-15T10:19:09;2.60;99.90
8862;DHT22;4799;50.996;4.754;2024-01-15T10:21:35;2.70;99.90
8862;DHT22;4799;50.996;4.754;2024-01-15T10:24:02;2.70;99.90
8862;DHT22;4799;50.996;4.754;2024-01-15T10:26:28;2.80;99.90
8862;DHT22;4799;50.996;4.754;2024-01-15T10:28:54;2.80;99.90
8862;DHT22;4799;50.996;4.754;2024-01-15T10:31:20;2.90;99.90
8862;DHT22;4799;50.996;4.754;2024-01-15T10:33:48;2.90;99.90
8862;DHT22;4799;50.996;4.754;2024-01-15T10:36:16;2.90;99.90
8862;DHT22;4799;50.996;4.754;2024-01-15T10:38:43;3.00;99.90
8862;DHT22;4799;50.996;4.754;2024-01-15T10:41:09;3.00;99.90
8862;DHT22;4799;50.996;4.754;2024-01-15T10:43:35;3.10;99.90
8862;DHT22;4799;50.996;4.754;2024-01-15T10:46:01;3.10;99.90
8862;DHT22;4799;50.996;4.754;2024-01-15T10:48:28;3.20;99.90
8862;DHT22;4799;50.996;4.754;2024-01-15T10:50:57;3.20;99.90
8862;DHT22;4799;50.996;4.754;2024-01-15T10:53:23;3.30;99.90
8862;DHT22;4799;50.996;4.754;2024-01-15T10:55:50;3.30;99.90
8862;DHT22;4799;50.996;4.754;2024-01-15T10:58:17;3.40;99.90
8862;DHT22;4799;50.996;4.754;2024-01-15T11:00:44;3.50;99.90
8862;DHT22;4799;50.996;4.754;2024-01-15T11:03:10;3.60;99.90
8862;DHT22;4799;50.996;4.754;2024-01-15T11:05:43;3.80;99.90
8862;DHT22;4799;50.996;4.754;2024-01-15T11:08:09;3.90;99.90
8862;DHT22;4799;50.996;4.754;2024-01-15T11:10:51;4.00;99.90
8862;DHT22;4799;50.996;4.754;2024-01-15T11:16:03;4.40;99.90
8862;DHT22;4799;50.996;4.754;2024-01-15T11:18:36;4.30;99.90
8862;DHT22;4799;50.996;4.754;2024-01-15T11:23:45;4.40;99.90
8862;DHT22;4799;50.996;4.754;2024-01-15T11:26:43;4.40;99.90
8862;DHT22;4799;50.996;4.754;2024-01-15T11:34:52;4.40;99.90
8862;DHT22;4799;50.996;4.754;2024-01-15T11:37:19;4.40;99.90
8862;DHT22;4799;50.996;4.754;2024-01-15T11:39:45;4.40;99.90
8862;DHT22;4799;50.996;4.754;2024-01-15T11:42:15;4.50;99.90
8862;DHT22;4799;50.996;4.754;2024-01-15T11:44:41;4.50;99.90
8862;DHT22;4799;50.996;4.754;2024-01-15T11:47:09;4.60;99.90
8862;DHT22;4799;50.996;4.754;2024-01-15T11:52:23;4.70;99.90
8862;DHT22;4799;50.996;4.754;2024-01-15T11:54:59;4.80;99.90
8862;DHT22;4799;50.996;4.754;2024-01-15T11:57:52;4.90;99.90
8862;DHT22;4799;50.996;4.754;2024-01-15T12:00:20;5.00;99.90
8862;DHT22;4799;50.996;4.754;2024-01-15T12:02:48;5.00;99.90
8862;DHT22;4799;50.996;4.754;2024-01-15T12:05:16;4.90;99.90
8862;DHT22;4799;50.996;4.754;2024-01-15T12:07:46;4.90;99.90
8862;DHT22;4799;50.996;4.754;2024-01-15T12:10:20;4.80;99.90
8862;DHT22;4799;50.996;4.754;2024-01-15T12:15:21;4.50;99.90
8862;DHT22;4799;50.996;4.754;2024-01-15T12:17:46;4.40;99.90
8862;DHT22;4799;50.996;4.754;2024-01-15T12:20:13;4.20;99.90
8862;DHT22;4799;50.996;4.754;2024-01-15T12:22:39;3.90;99.90
8862;DHT22;4799;50.996;4.754;2024-01-15T12:25:05;3.80;99.90
8862;DHT22;4799;50.996;4.754;2024-01-15T12:27:31;3.50;99.90
8862;DHT22;4799;50.996;4.754;2024-01-15T12:29:58;3.30;99.90
8862;DHT22;4799;50.996;4.754;2024-01-15T12:32:24;3.00;99.90
8862;DHT22;4799;50.996;4.754;2024-01-15T12:34:50;3.00;99.90
8862;DHT22;4799;50.996;4.754;2024-01-15T12:37:20;3.00;99.90
8862;DHT22;4799;50.996;4.754;2024-01-15T12:39:46;3.00;99.90
8862;DHT22;4799;50.996;4.754;2024-01-15T12:42:14;3.00;99.90
8862;DHT22;4799;50.996;4.754;2024-01-15T12:44:40;3.10;99.90
8862;DHT22;4799;50.996;4.754;2024-01-15T12:47:06;3.10;99.90
8862;DHT22;4799;50.996;4.754;2024-01-15T12:49:32;3.10;99.90
8862;DHT22;4799;50.996;4.754;2024-01-15T12:51:58;3.00;99.90
8862;DHT22;4799;50.996;4.754;2024-01-15T12:54:25;3.00;99.90
8862;DHT22;4799;50.996;4.754;2024-01-15T12:56:51;2.80;99.90
8862;DHT22;4799;50.996;4.754;2024-01-15T12:59:18;2.60;99.90
8862;DHT22;4799;50.996;4.754;2024-01-15T13:01:45;2.50;99.90
8862;DHT22;4799;50.996;4.754;2024-01-15T13:04:20;2.30;99.90
8862;DHT22;4799;50.996;4.754;2024-01-15T13:06:46;2.20;99.90
8862;DHT22;4799;50.996;4.754;2024-01-15T13:09:11;2.10;99.90
8862;DHT22;4799;50.996;4.754;2024-01-15T13:11:37;2.10;99.90
8862;DHT22;4799;50.996;4.754;2024-01-15T13:14:03;2.10;99.90
8862;DHT22;4799;50.996;4.754;2024-01-15T13:16:29;2.10;99.90
8862;DHT22;4799;50.996;4.754;2024-01-15T13:18:55;2.20;99.90
8862;DHT22;4799;50.996;4.754;2024-01-15T13:21:22;2.20;99.90
8862;DHT22;4799;50.996;4.754;2024-01-15T13:23:48;2.20;99.90
8862;DHT22;4799;50.996;4.754;2024-01-15T13:26:14;2.30;99.90
8862;DHT22;4799;50.996;4.754;2024-01-15T13:28:39;2.30;99.90
8862;DHT22;4799;50.996;4.754;2024-01-15T13:31:05;2.20;99.90
8862;DHT22;4799;50.996;4.754;2024-01-15T13:33:31;2.30;99.90
8862;DHT22;4799;50.996;4.754;2024-01-15T13:35:57;2.30;99.90
8862;DHT22;4799;50.996;4.754;2024-01-15T13:38:22;2.30;99.90
8862;DHT22;4799;50.996;4.754;2024-01-15T13:40:49;2.30;99.90
8862;DHT22;4799;50.996;4.754;2024-01-15T13:43:15;2.30;99.90
8862;DHT22;4799;50.996;4.754;2024-01-15T13:45:44;2.20;99.90
8862;DHT22;4799;50.996;4.754;2024-01-15T13:48:09;2.20;99.90
8862;DHT22;4799;50.996;4.754;2024-01-15T13:50:36;2.20;99.90
8862;DHT22;4799;50.996;4.754;2024-01-15T13:53:02;2.20;99.90
8862;DHT22;4799;50.996;4.754;2024-01-15T13:55:29;2.20;99.90
8862;DHT22;4799;50.996;4.754;2024-01-15T13:57:55;2.20;99.90
8862;DHT22;4799;50.996;4.754;2024-01-15T14:00:21;2.10;99.90
8862;DHT22;4799;50.996;4.754;2024-01-15T14:02:48;2.10;99.90
8862;DHT22;4799;50.996;4.754;2024-01-15T14:05:14;2.00;99.90
8862;DHT22;4799;50.996;4.754;2024-01-15T14:07:40;2.00;99.90
8862;DHT22;4799;50.996;4.754;2024-01-15T14:10:06;1.90;99.90
8862;DHT22;4799;50.996;4.754;2024-01-15T14:12:34;1.90;99.90
8862;DHT22;4799;50.996;4.754;2024-01-15T14:15:03;1.90;99.90
8862;DHT22;4799;50.996;4.754;2024-01-15T14:17:29;1.90;99.90
8862;DHT22;4799;50.996;4.754;2024-01-15T14:19:55;2.00;99.90
8862;DHT22;4799;50.996;4.754;2024-01-15T14:22:20;2.00;99.90
8862;DHT22;4799;50.996;4.754;2024-01-15T14:24:46;2.00;99.90
8862;DHT22;4799;50.996;4.754;2024-01-15T14:27:12;2.00;99.90
8862;DHT22;4799;50.996;4.754;2024-01-15T14:29:37;2.00;99.90
8862;DHT22;4799;50.996;4.754;2024-01-15T14:32:03;1.90;99.90
8862;DHT22;4799;50.996;4.754;2024-01-15T14:34:29;1.90;99.90
8862;DHT22;4799;50.996;4.754;2024-01-15T14:36:55;2.00;99.90
8862;DHT22;4799;50.996;4.754;2024-01-15T14:39:24;1.90;99.90
8862;DHT22;4799;50.996;4.754;2024-01-15T14:41:51;2.00;99.90
8862;DHT22;4799;50.996;4.754;2024-01-15T14:44:17;2.00;99.90
8862;DHT22;4799;50.996;4.754;2024-01-15T14:46:43;2.00;99.90
8862;DHT22;4799;50.996;4.754;2024-01-15T14:49:09;2.00;99.90
8862;DHT22;4799;50.996;4.754;2024-01-15T14:51:34;2.00;99.90
8862;DHT22;4799;50.996;4.754;2024-01-15T14:54:00;2.00;99.90
8862;DHT22;4799;50.996;4.754;2024-01-15T14:56:26;2.00;99.90
8862;DHT22;4799;50.996;4.754;2024-01-15T14:58:52;2.00;99.90
8862;DHT22;4799;50.996;4.754;2024-01-15T15:01:17;2.00;99.90
8862;DHT22;4799;50.996;4.754;2024-01-15T15:03:43;2.00;99.90
8862;DHT22;4799;50.996;4.754;2024-01-15T15:06:11;2.10;99.90
8862;DHT22;4799;50.996;4.754;2024-01-15T15:08:38;2.10;99.90
8862;DHT22;4799;50.996;4.754;2024-01-15T15:11:04;2.10;99.90
8862;DHT22;4799;50.996;4.754;2024-01-15T15:13:30;2.00;99.90
8862;DHT22;4799;50.996;4.754;2024-01-15T15:15:55;2.00;99.90
8862;DHT22;4799;50.996;4.754;2024-01-15T15:18:21;2.00;99.90
8862;DHT22;4799;50.996;4.754;2024-01-15T15:20:48;2.00;99.90
8862;DHT22;4799;50.996;4.754;2024-01-15T15:23:15;2.00;99.90
8862;DHT22;4799;50.996;4.754;2024-01-15T15:25:41;2.00;99.90
8862;DHT22;4799;50.996;4.754;2024-01-15T15:28:08;1.90;99.90
8862;DHT22;4799;50.996;4.754;2024-01-15T15:30:35;1.90;99.90
8862;DHT22;4799;50.996;4.754;2024-01-15T15:33:01;2.00;99.90
8862;DHT22;4799;50.996;4.754;2024-01-15T15:35:26;1.90;99.90
8862;DHT22;4799;50.996;4.754;2024-01-15T15:37:52;2.00;99.90
8862;DHT22;4799;50.996;4.754;2024-01-15T15:40:18;2.00;99.90
8862;DHT22;4799;50.996;4.754;2024-01-15T15:42:43;2.00;99.90
8862;DHT22;4799;50.996;4.754;2024-01-15T15:45:09;2.00;99.90
8862;DHT22;4799;50.996;4.754;2024-01-15T15:47:35;2.00;99.90
8862;DHT22;4799;50.996;4.754;2024-01-15T15:50:01;2.00;99.90
8862;DHT22;4799;50.996;4.754;2024-01-15T15:52:27;2.00;99.90
8862;DHT22;4799;50.996;4.754;2024-01-15T15:54:52;2.00;99.90
8862;DHT22;4799;50.996;4.754;2024-01-15T15:57:19;1.90;99.90
8862;DHT22;4799;50.996;4.754;2024-01-15T15:59:45;1.90;99.90
8862;DHT22;4799;50.996;4.754;2024-01-15T16:02:10;1.80;99.90
8862;DHT22;4799;50.996;4.754;2024-01-15T16:04:36;1.80;99.90
8862;DHT22;4799;50.996;4.754;2024-01-15T16:07:02;1.80;99.90
8862;DHT22;4799;50.996;4.754;2024-01-15T16:09:29;1.80;99.90
8862;DHT22;4799;50.996;4.754;2024-01-15T16:11:54;1.80;99.90
8862;DHT22;4799;50.996;4.754;2024-01-15T16:14:20;1.80;99.90
8862;DHT22;4799;50.996;4.754;2024-01-15T16:16:46;1.80;99.90
8862;DHT22;4799;50.996;4.754;2024-01-15T16:19:12;1.80;99.90
8862;DHT22;4799;50.996;4.754;2024-01-15T16:21:38;1.80;99.90
8862;DHT22;4799;50.996;4.754;2024-01-15T16:24:04;1.80;99.90
8862;DHT22;4799;50.996;4.754;2024-01-15T16:26:30;1.80;99.90
8862;DHT22;4799;50.996;4.754;2024-01-15T16:28:55;1.80;99.90
8862;DHT22;4799;50.996;4.754;2024-01-15T16:31:21;1.80;99.90
8862;DHT22;4799;50.996;4.754;2024-01-15T16:33:47;1.70;99.90
8862;DHT22;4799;50.996;4.754;2024-01-15T16:36:13;1.60;99.90
8862;DHT22;4799;50.996;4.754;2024-01-15T16:38:39;1.50;99.90
8862;DHT22;4799;50.996;4.754;2024-01-15T16:41:04;1.50;99.90
8862;DHT22;4799;50.996;4.754;2024-01-15T16:43:30;1.50;99.90
8862;DHT22;4799;50.996;4.754;2024-01-15T16:45:56;1.50;99.90
8862;DHT22;4799;50.996;4.754;2024-01-15T16:48:22;1.50;99.90
8862;DHT22;4799;50.996;4.754;2024-01-15T16:50:48;1.60;99.90